sensor_id;sensor_type;location;lat;lon;timestamp;P1;durP1;ratioP1;P2;durP2;ratioP2
18796;SDS011;9526;52.612;13.300;2023-03-03T00:01:56;34.77;;;17.17;;
18796;SDS011;9526;52.612;13.300;2023-03-03T00:04:20;39.10;;;16.80;;
18796;SDS011;9526;52.612;13.300;2023-03-03T00:06:44;38.70;;;17.53;;
18796;SDS011;9526;52.612;13.300;2023-03-03T00:09:07;36.77;;;17.20;;
18796;SDS011;9526;52.612;13.300;2023-03-03T00:11:32;36.07;;;16.80;;
18796;SDS011;9526;52.612;13.300;2023-03-03T00:13:56;36.97;;;17.27;;
18796;SDS011;9526;52.612;13.300;2023-03-03T00:16:21;37.87;;;16.90;;
18796;SDS011;9526;52.612;13.300;2023-03-03T00:18:49;33.33;;;15.70;;
18796;SDS011;9526;52.612;13.300;2023-03-03T00:24:10;35.03;;;15.83;;
18796;SDS011;9526;52.612;13.300;2023-03-03T00:26:44;39.17;;;17.60;;
18796;SDS011;9526;52.612;13.300;2023-03-03T00:29:23;34.50;;;17.20;;
18796;SDS011;9526;52.612;13.300;2023-03-03T00:31:52;35.83;;;16.57;;
18796;SDS011;9526;52.612;13.300;2023-03-03T00:34:19;36.90;;;16.40;;
18796;SDS011;9526;52.612;13.300;2023-03-03T00:36:48;35.27;;;17.07;;
18796;SDS011;9526;52.612;13.300;2023-03-03T00:39:25;34.30;;;16.97;;
18796;SDS011;9526;52.612;13.300;2023-03-03T00:41:54;36.97;;;16.43;;
18796;SDS011;9526;52.612;13.300;2023-03-03T00:44:32;30.67;;;13.40;;
18796;SDS011;9526;52.612;13.300;2023-03-03T00:47:10;35.37;;;16.67;;
18796;SDS011;9526;52.612;13.300;2023-03-03T00:49:52;36.13;;;16.47;;
18796;SDS011;9526;52.612;13.300;2023-03-03T00:52:17;36.53;;;16.37;;
18796;SDS011;9526;52.612;13.300;2023-03-03T00:54:43;38.17;;;17.10;;
18796;SDS011;9526;52.612;13.300;2023-03-03T00:57:08;33.93;;;16.50;;
18796;SDS011;9526;52.612;13.300;2023-03-03T00:59:34;39.07;;;17.30;;
18796;SDS011;9526;52.612;13.300;2023-03-03T01:01:58;32.33;;;16.13;;
18796;SDS011;9526;52.612;13.300;2023-03-03T01:04:22;33.87;;;16.10;;
18796;SDS011;9526;52.612;13.300;2023-03-03T01:06:45;36.27;;;16.17;;
18796;SDS011;9526;52.612;13.300;2023-03-03T01:09:10;36.17;;;16.40;;
18796;SDS011;9526;52.612;13.300;2023-03-03T01:11:33;35.73;;;16.57;;
18796;SDS011;9526;52.612;13.300;2023-03-03T01:13:58;35.80;;;16.27;;
18796;SDS011;9526;52.612;13.300;2023-03-03T01:16:22;37.93;;;17.10;;
18796;SDS011;9526;52.612;13.300;2023-03-03T01:18:46;36.03;;;17.00;;
18796;SDS011;9526;52.612;13.300;2023-03-03T01:21:10;35.60;;;16.37;;
18796;SDS011;9526;52.612;13.300;2023-03-03T01:23:34;38.00;;;17.47;;
18796;SDS011;9526;52.612;13.300;2023-03-03T01:25:57;35.73;;;16.40;;
18796;SDS011;9526;52.612;13.300;2023-03-03T01:28:21;36.53;;;16.33;;
18796;SDS011;9526;52.612;13.300;2023-03-03T01:30:46;35.50;;;16.90;;
18796;SDS011;9526;52.612;13.300;2023-03-03T01:33:11;37.50;;;16.20;;
18796;SDS011;9526;52.612;13.300;2023-03-03T01:35:34;38.27;;;17.10;;
18796;SDS011;9526;52.612;13.300;2023-03-03T01:38:01;36.43;;;17.17;;
18796;SDS011;9526;52.612;13.300;2023-03-03T01:40:26;35.17;;;16.60;;
18796;SDS011;9526;52.612;13.300;2023-03-03T01:42:52;35.20;;;16.17;;
18796;SDS011;9526;52.612;13.300;2023-03-03T01:45:17;35.40;;;16.33;;
18796;SDS011;9526;52.612;13.300;2023-03-03T01:47:47;39.90;;;17.87;;
18796;SDS011;9526;52.612;13.300;2023-03-03T01:50:17;39.53;;;16.57;;
18796;SDS011;9526;52.612;13.300;2023-03-03T01:52:50;38.80;;;17.17;;
18796;SDS011;9526;52.612;13.300;2023-03-03T01:55:14;35.70;;;16.83;;
18796;SDS011;9526;52.612;13.300;2023-03-03T01:57:43;36.70;;;16.83;;
18796;SDS011;9526;52.612;13.300;2023-03-03T02:00:10;38.60;;;17.13;;
18796;SDS011;9526;52.612;13.300;2023-03-03T02:02:35;37.27;;;15.60;;
18796;SDS011;9526;52.612;13.300;2023-03-03T02:05:01;42.47;;;18.17;;
18796;SDS011;9526;52.612;13.300;2023-03-03T02:07:26;37.43;;;17.00;;
18796;SDS011;9526;52.612;13.300;2023-03-03T02:09:54;36.10;;;16.07;;
18796;SDS011;9526;52.612;13.300;2023-03-03T02:12:22;44.17;;;18.03;;
18796;SDS011;9526;52.612;13.300;2023-03-03T02:14:54;41.77;;;17.17;;
18796;SDS011;9526;52.612;13.300;2023-03-03T02:17:17;39.30;;;16.47;;
18796;SDS011;9526;52.612;13.300;2023-03-03T02:19:42;39.07;;;16.97;;
18796;SDS011;9526;52.612;13.300;2023-03-03T02:22:16;35.03;;;16.53;;
18796;SDS011;9526;52.612;13.300;2023-03-03T02:24:46;36.27;;;16.67;;
18796;SDS011;9526;52.612;13.300;2023-03-03T02:27:15;40.63;;;17.60;;
18796;SDS011;9526;52.612;13.300;2023-03-03T02:29:39;40.43;;;17.17;;
18796;SDS011;9526;52.612;13.300;2023-03-03T02:32:04;42.87;;;17.80;;
18796;SDS011;9526;52.612;13.300;2023-03-03T02:34:28;37.53;;;16.77;;
18796;SDS011;9526;52.612;13.300;2023-03-03T02:36:51;37.90;;;16.47;;
18796;SDS011;9526;52.612;13.300;2023-03-03T02:39:17;43.90;;;17.33;;
18796;SDS011;9526;52.612;13.300;2023-03-03T02:41:43;36.33;;;15.00;;
18796;SDS011;9526;52.612;13.300;2023-03-03T02:44:16;37.80;;;16.83;;
18796;SDS011;9526;52.612;13.300;2023-03-03T02:46:43;39.50;;;16.57;;
18796;SDS011;9526;52.612;13.300;2023-03-03T02:49:10;38.30;;;15.93;;
18796;SDS011;9526;52.612;13.300;2023-03-03T02:51:36;38.97;;;16.50;;
18796;SDS011;9526;52.612;13.300;2023-03-03T02:54:01;41.20;;;17.17;;
18796;SDS011;9526;52.612;13.300;2023-03-03T02:56:26;39.67;;;16.93;;
18796;SDS011;9526;52.612;13.300;2023-03-03T02:58:50;42.77;;;17.63;;
18796;SDS011;9526;52.612;13.300;2023-03-03T03:01:16;39.53;;;17.97;;
18796;SDS011;9526;52.612;13.300;2023-03-03T03:03:40;38.43;;;16.07;;
18796;SDS011;9526;52.612;13.300;2023-03-03T03:06:04;40.47;;;16.57;;
18796;SDS011;9526;52.612;13.300;2023-03-03T03:08:29;44.87;;;16.77;;
18796;SDS011;9526;52.612;13.300;2023-03-03T03:10:54;42.33;;;16.20;;
18796;SDS011;9526;52.612;13.300;2023-03-03T03:13:20;42.03;;;16.27;;
18796;SDS011;9526;52.612;13.300;2023-03-03T03:15:44;39.27;;;16.13;;
18796;SDS011;9526;52.612;13.300;2023-03-03T03:18:10;39.70;;;16.80;;
18796;SDS011;9526;52.612;13.300;2023-03-03T03:20:35;41.33;;;16.33;;
18796;SDS011;9526;52.612;13.300;2023-03-03T03:23:01;41.60;;;17.13;;
18796;SDS011;9526;52.612;13.300;2023-03-03T03:25:25;52.40;;;17.17;;
18796;SDS011;9526;52.612;13.300;2023-03-03T03:27:49;40.73;;;16.40;;
18796;SDS011;9526;52.612;13.300;2023-03-03T03:30:13;40.73;;;16.63;;
18796;SDS011;9526;52.612;13.300;2023-03-03T03:32:37;38.23;;;15.57;;
18796;SDS011;9526;52.612;13.300;2023-03-03T03:35:04;39.33;;;16.20;;
18796;SDS011;9526;52.612;13.300;2023-03-03T03:37:29;42.17;;;15.83;;
18796;SDS011;9526;52.612;13.300;2023-03-03T03:39:53;33.77;;;15.23;;
18796;SDS011;9526;52.612;13.300;2023-03-03T03:42:17;37.50;;;15.23;;
18796;SDS011;9526;52.612;13.300;2023-03-03T03:44:41;35.40;;;14.50;;
18796;SDS011;9526;52.612;13.300;2023-03-03T03:47:05;35.47;;;15.00;;
18796;SDS011;9526;52.612;13.300;2023-03-03T03:49:29;32.60;;;14.20;;
18796;SDS011;9526;52.612;13.300;2023-03-03T03:51:55;38.13;;;14.37;;
18796;SDS011;9526;52.612;13.300;2023-03-03T03:54:21;33.43;;;14.37;;
18796;SDS011;9526;52.612;13.300;2023-03-03T03:56:45;33.33;;;14.33;;
18796;SDS011;9526;52.612;13.300;2023-03-03T03:59:09;34.87;;;14.30;;
18796;SDS011;9526;52.612;13.300;2023-03-03T04:01:33;25.93;;;11.83;;
18796;SDS011;9526;52.612;13.300;2023-03-03T04:03:57;30.87;;;12.53;;
18796;SDS011;9526;52.612;13.300;2023-03-03T04:06:21;31.87;;;11.87;;
18796;SDS011;9526;52.612;13.300;2023-03-03T04:08:47;34.90;;;13.10;;
18796;SDS011;9526;52.612;13.300;2023-03-03T04:11:13;39.00;;;12.47;;
18796;SDS011;9526;52.612;13.300;2023-03-03T04:13:37;43.33;;;13.37;;
18796;SDS011;9526;52.612;13.300;2023-03-03T04:16:02;34.43;;;14.63;;
18796;SDS011;9526;52.612;13.300;2023-03-03T04:18:27;36.83;;;13.90;;
18796;SDS011;9526;52.612;13.300;2023-03-03T04:20:51;36.33;;;13.80;;
18796;SDS011;9526;52.612;13.300;2023-03-03T04:23:15;45.17;;;12.90;;
18796;SDS011;9526;52.612;13.300;2023-03-03T04:25:42;36.60;;;14.90;;
18796;SDS011;9526;52.612;13.300;2023-03-03T04:28:08;48.50;;;15.70;;
18796;SDS011;9526;52.612;13.300;2023-03-03T04:30:32;41.77;;;15.70;;
18796;SDS011;9526;52.612;13.300;2023-03-03T04:32:55;42.37;;;15.23;;
18796;SDS011;9526;52.612;13.300;2023-03-03T04:35:21;43.73;;;16.00;;
18796;SDS011;9526;52.612;13.300;2023-03-03T04:37:46;47.00;;;16.53;;
18796;SDS011;9526;52.612;13.300;2023-03-03T04:40:10;48.13;;;15.97;;
18796;SDS011;9526;52.612;13.300;2023-03-03T04:42:37;48.63;;;16.17;;
18796;SDS011;9526;52.612;13.300;2023-03-03T04:45:03;56.50;;;16.23;;
18796;SDS011;9526;52.612;13.300;2023-03-03T04:47:29;41.00;;;16.20;;
18796;SDS011;9526;52.612;13.300;2023-03-03T04:49:53;38.23;;;16.63;;
18796;SDS011;9526;52.612;13.300;2023-03-03T04:52:17;42.37;;;13.90;;
18796;SDS011;9526;52.612;13.300;2023-03-03T04:54:41;41.87;;;15.60;;
18796;SDS011;9526;52.612;13.300;2023-03-03T04:57:05;40.93;;;15.93;;
18796;SDS011;9526;52.612;13.300;2023-03-03T04:59:31;40.17;;;16.70;;
18796;SDS011;9526;52.612;13.300;2023-03-03T05:01:56;42.87;;;16.10;;
18796;SDS011;9526;52.612;13.300;2023-03-03T05:04:20;40.53;;;16.63;;
18796;SDS011;9526;52.612;13.300;2023-03-03T05:06:43;38.43;;;16.13;;
18796;SDS011;9526;52.612;13.300;2023-03-03T05:09:07;44.43;;;16.13;;
18796;SDS011;9526;52.612;13.300;2023-03-03T05:11:31;37.70;;;14.77;;
18796;SDS011;9526;52.612;13.300;2023-03-03T05:13:54;36.43;;;14.10;;
18796;SDS011;9526;52.612;13.300;2023-03-03T05:16:19;36.77;;;15.47;;
18796;SDS011;9526;52.612;13.300;2023-03-03T05:18:43;36.00;;;14.97;;
18796;SDS011;9526;52.612;13.300;2023-03-03T05:21:07;39.17;;;14.63;;
18796;SDS011;9526;52.612;13.300;2023-03-03T05:23:31;38.00;;;15.00;;
18796;SDS011;9526;52.612;13.300;2023-03-03T05:25:55;41.60;;;15.33;;
18796;SDS011;9526;52.612;13.300;2023-03-03T05:28:19;32.40;;;13.83;;
18796;SDS011;9526;52.612;13.300;2023-03-03T05:30:42;37.27;;;14.60;;
18796;SDS011;9526;52.612;13.300;2023-03-03T05:33:09;33.47;;;13.90;;
18796;SDS011;9526;52.612;13.300;2023-03-03T05:35:36;35.50;;;14.40;;
18796;SDS011;9526;52.612;13.300;2023-03-03T05:38:00;31.80;;;13.40;;
18796;SDS011;9526;52.612;13.300;2023-03-03T05:40:26;28.57;;;10.53;;
18796;SDS011;9526;52.612;13.300;2023-03-03T05:42:50;30.57;;;12.80;;
18796;SDS011;9526;52.612;13.300;2023-03-03T05:45:14;33.57;;;12.77;;
18796;SDS011;9526;52.612;13.300;2023-03-03T05:47:40;33.83;;;12.23;;
18796;SDS011;9526;52.612;13.300;2023-03-03T05:50:06;30.20;;;12.63;;
18796;SDS011;9526;52.612;13.300;2023-03-03T05:52:30;29.13;;;11.40;;
18796;SDS011;9526;52.612;13.300;2023-03-03T05:54:54;30.87;;;12.57;;
18796;SDS011;9526;52.612;13.300;2023-03-03T05:57:18;29.53;;;12.37;;
18796;SDS011;9526;52.612;13.300;2023-03-03T05:59:41;32.73;;;12.07;;
18796;SDS011;9526;52.612;13.300;2023-03-03T06:02:05;33.83;;;12.30;;
18796;SDS011;9526;52.612;13.300;2023-03-03T06:04:28;40.73;;;12.67;;
18796;SDS011;9526;52.612;13.300;2023-03-03T06:06:53;25.10;;;9.47;;
18796;SDS011;9526;52.612;13.300;2023-03-03T06:09:17;30.13;;;12.07;;
18796;SDS011;9526;52.612;13.300;2023-03-03T06:11:41;29.00;;;12.53;;
18796;SDS011;9526;52.612;13.300;2023-03-03T06:14:05;32.07;;;11.47;;
18796;SDS011;9526;52.612;13.300;2023-03-03T06:16:28;28.47;;;11.07;;
18796;SDS011;9526;52.612;13.300;2023-03-03T06:18:52;30.57;;;12.47;;
18796;SDS011;9526;52.612;13.300;2023-03-03T06:21:15;29.93;;;11.50;;
18796;SDS011;9526;52.612;13.300;2023-03-03T06:23:40;29.77;;;12.40;;
18796;SDS011;9526;52.612;13.300;2023-03-03T06:26:04;32.80;;;12.43;;
18796;SDS011;9526;52.612;13.300;2023-03-03T06:28:28;32.07;;;12.23;;
18796;SDS011;9526;52.612;13.300;2023-03-03T06:30:52;35.33;;;13.03;;
18796;SDS011;9526;52.612;13.300;2023-03-03T06:33:16;36.13;;;12.90;;
18796;SDS011;9526;52.612;13.300;2023-03-03T06:35:39;36.87;;;13.67;;
18796;SDS011;9526;52.612;13.300;2023-03-03T06:38:03;34.00;;;13.10;;
18796;SDS011;9526;52.612;13.300;2023-03-03T06:40:28;38.27;;;13.60;;
18796;SDS011;9526;52.612;13.300;2023-03-03T06:42:52;36.50;;;13.80;;
18796;SDS011;9526;52.612;13.300;2023-03-03T06:45:16;41.93;;;14.00;;
18796;SDS011;9526;52.612;13.300;2023-03-03T06:47:39;36.20;;;13.93;;
18796;SDS011;9526;52.612;13.300;2023-03-03T06:50:03;38.07;;;13.33;;
18796;SDS011;9526;52.612;13.300;2023-03-03T06:52:28;37.10;;;13.10;;
18796;SDS011;9526;52.612;13.300;2023-03-03T06:54:52;33.83;;;12.47;;
18796;SDS011;9526;52.612;13.300;2023-03-03T06:57:22;43.00;;;13.63;;
18796;SDS011;9526;52.612;13.300;2023-03-03T06:59:50;31.53;;;12.77;;
18796;SDS011;9526;52.612;13.300;2023-03-03T07:02:16;32.10;;;12.80;;
18796;SDS011;9526;52.612;13.300;2023-03-03T07:04:41;32.97;;;13.23;;
18796;SDS011;9526;52.612;13.300;2023-03-03T07:07:10;29.67;;;12.80;;
18796;SDS011;9526;52.612;13.300;2023-03-03T07:09:39;35.13;;;13.00;;
18796;SDS011;9526;52.612;13.300;2023-03-03T07:12:05;29.97;;;12.70;;
18796;SDS011;9526;52.612;13.300;2023-03-03T07:14:36;31.63;;;12.30;;
18796;SDS011;9526;52.612;13.300;2023-03-03T07:17:08;30.03;;;12.00;;
18796;SDS011;9526;52.612;13.300;2023-03-03T07:19:37;33.33;;;12.40;;
18796;SDS011;9526;52.612;13.300;2023-03-03T07:22:04;29.83;;;11.57;;
18796;SDS011;9526;52.612;13.300;2023-03-03T07:24:37;31.60;;;12.90;;
18796;SDS011;9526;52.612;13.300;2023-03-03T07:27:05;34.47;;;12.00;;
18796;SDS011;9526;52.612;13.300;2023-03-03T07:29:36;31.53;;;12.97;;
18796;SDS011;9526;52.612;13.300;2023-03-03T07:32:01;30.30;;;12.10;;
18796;SDS011;9526;52.612;13.300;2023-03-03T07:34:35;30.03;;;11.63;;
18796;SDS011;9526;52.612;13.300;2023-03-03T07:37:03;27.53;;;11.23;;
18796;SDS011;9526;52.612;13.300;2023-03-03T07:39:35;27.33;;;11.30;;
18796;SDS011;9526;52.612;13.300;2023-03-03T07:42:05;25.93;;;10.30;;
18796;SDS011;9526;52.612;13.300;2023-03-03T07:44:48;23.03;;;10.27;;
18796;SDS011;9526;52.612;13.300;2023-03-03T07:47:17;22.47;;;9.57;;
18796;SDS011;9526;52.612;13.300;2023-03-03T07:49:43;25.10;;;10.90;;
18796;SDS011;9526;52.612;13.300;2023-03-03T07:52:16;27.10;;;11.17;;
18796;SDS011;9526;52.612;13.300;2023-03-03T07:54:51;22.23;;;10.30;;
18796;SDS011;9526;52.612;13.300;2023-03-03T07:57:19;25.93;;;10.87;;
18796;SDS011;9526;52.612;13.300;2023-03-03T07:59:46;24.27;;;10.23;;
18796;SDS011;9526;52.612;13.300;2023-03-03T08:02:16;21.33;;;10.20;;
18796;SDS011;9526;52.612;13.300;2023-03-03T08:05:11;25.23;;;11.00;;
18796;SDS011;9526;52.612;13.300;2023-03-03T08:07:50;25.07;;;11.20;;
18796;SDS011;9526;52.612;13.300;2023-03-03T08:10:25;26.80;;;9.70;;
18796;SDS011;9526;52.612;13.300;2023-03-03T08:12:57;22.70;;;9.33;;
18796;SDS011;9526;52.612;13.300;2023-03-03T08:15:25;26.03;;;10.30;;
18796;SDS011;9526;52.612;13.300;2023-03-03T08:17:53;23.73;;;9.87;;
18796;SDS011;9526;52.612;13.300;2023-03-03T08:23:17;20.93;;;9.10;;
18796;SDS011;9526;52.612;13.300;2023-03-03T08:25:42;22.03;;;9.50;;
18796;SDS011;9526;52.612;13.300;2023-03-03T08:28:07;21.60;;;9.73;;
18796;SDS011;9526;52.612;13.300;2023-03-03T08:30:32;20.73;;;9.33;;
18796;SDS011;9526;52.612;13.300;2023-03-03T08:32:56;20.33;;;8.67;;
18796;SDS011;9526;52.612;13.300;2023-03-03T08:35:19;20.67;;;9.57;;
18796;SDS011;9526;52.612;13.300;2023-03-03T08:37:43;21.13;;;9.33;;
18796;SDS011;9526;52.612;13.300;2023-03-03T08:40:07;19.43;;;8.83;;
18796;SDS011;9526;52.612;13.300;2023-03-03T08:42:32;21.47;;;9.10;;
18796;SDS011;9526;52.612;13.300;2023-03-03T08:44:56;19.87;;;9.67;;
18796;SDS011;9526;52.612;13.300;2023-03-03T08:47:21;22.00;;;9.60;;
18796;SDS011;9526;52.612;13.300;2023-03-03T08:49:44;21.57;;;9.63;;
18796;SDS011;9526;52.612;13.300;2023-03-03T08:52:08;19.90;;;9.57;;
18796;SDS011;9526;52.612;13.300;2023-03-03T08:54:32;19.43;;;8.90;;
18796;SDS011;9526;52.612;13.300;2023-03-03T08:56:55;21.57;;;9.33;;
18796;SDS011;9526;52.612;13.300;2023-03-03T08:59:19;17.20;;;8.47;;
18796;SDS011;9526;52.612;13.300;2023-03-03T09:01:42;21.53;;;9.73;;
18796;SDS011;9526;52.612;13.300;2023-03-03T09:04:07;18.97;;;9.63;;
18796;SDS011;9526;52.612;13.300;2023-03-03T09:06:31;21.53;;;10.00;;
18796;SDS011;9526;52.612;13.300;2023-03-03T09:08:55;18.40;;;8.70;;
18796;SDS011;9526;52.612;13.300;2023-03-03T09:11:21;18.57;;;9.20;;
18796;SDS011;9526;52.612;13.300;2023-03-03T09:13:48;20.37;;;9.27;;
18796;SDS011;9526;52.612;13.300;2023-03-03T09:16:14;23.10;;;10.17;;
18796;SDS011;9526;52.612;13.300;2023-03-03T09:18:38;20.90;;;9.70;;
18796;SDS011;9526;52.612;13.300;2023-03-03T09:21:05;19.30;;;9.67;;
18796;SDS011;9526;52.612;13.300;2023-03-03T09:23:46;21.43;;;9.67;;
18796;SDS011;9526;52.612;13.300;2023-03-03T09:26:22;24.53;;;11.60;;
18796;SDS011;9526;52.612;13.300;2023-03-03T09:28:50;19.90;;;9.50;;
18796;SDS011;9526;52.612;13.300;2023-03-03T09:31:19;19.13;;;9.43;;
18796;SDS011;9526;52.612;13.300;2023-03-03T09:33:47;19.57;;;9.43;;
18796;SDS011;9526;52.612;13.300;2023-03-03T09:36:18;20.87;;;9.20;;
18796;SDS011;9526;52.612;13.300;2023-03-03T09:38:46;21.60;;;10.20;;
18796;SDS011;9526;52.612;13.300;2023-03-03T09:41:30;20.47;;;9.87;;
18796;SDS011;9526;52.612;13.300;2023-03-03T09:44:29;19.87;;;9.83;;
18796;SDS011;9526;52.612;13.300;2023-03-03T09:47:23;22.57;;;9.93;;
18796;SDS011;9526;52.612;13.300;2023-03-03T09:50:06;24.10;;;10.23;;
18796;SDS011;9526;52.612;13.300;2023-03-03T09:52:44;23.23;;;10.00;;
18796;SDS011;9526;52.612;13.300;2023-03-03T09:55:18;23.70;;;10.00;;
18796;SDS011;9526;52.612;13.300;2023-03-03T09:58:01;21.10;;;9.77;;
18796;SDS011;9526;52.612;13.300;2023-03-03T10:00:52;20.10;;;9.97;;
18796;SDS011;9526;52.612;13.300;2023-03-03T10:03:46;25.17;;;11.07;;
18796;SDS011;9526;52.612;13.300;2023-03-03T10:06:33;23.47;;;9.63;;
18796;SDS011;9526;52.612;13.300;2023-03-03T10:09:20;21.73;;;10.60;;
18796;SDS011;9526;52.612;13.300;2023-03-03T10:12:11;22.00;;;9.77;;
18796;SDS011;9526;52.612;13.300;2023-03-03T10:14:44;25.57;;;11.87;;
18796;SDS011;9526;52.612;13.300;2023-03-03T10:17:27;24.30;;;11.60;;
18796;SDS011;9526;52.612;13.300;2023-03-03T10:20:11;25.17;;;11.33;;
18796;SDS011;9526;52.612;13.300;2023-03-03T10:23:17;22.93;;;11.17;;
18796;SDS011;9526;52.612;13.300;2023-03-03T10:25:46;27.57;;;11.77;;
18796;SDS011;9526;52.612;13.300;2023-03-03T10:28:33;26.27;;;12.03;;
18796;SDS011;9526;52.612;13.300;2023-03-03T10:31:32;24.67;;;10.73;;
18796;SDS011;9526;52.612;13.300;2023-03-03T10:34:16;29.17;;;11.70;;
18796;SDS011;9526;52.612;13.300;2023-03-03T10:37:17;30.70;;;12.90;;
18796;SDS011;9526;52.612;13.300;2023-03-03T10:39:49;27.87;;;12.47;;
18796;SDS011;9526;52.612;13.300;2023-03-03T10:42:40;27.63;;;13.30;;
18796;SDS011;9526;52.612;13.300;2023-03-03T10:45:31;32.20;;;13.27;;
18796;SDS011;9526;52.612;13.300;2023-03-03T10:48:41;30.53;;;12.77;;
18796;SDS011;9526;52.612;13.300;2023-03-03T10:51:36;29.10;;;12.70;;
18796;SDS011;9526;52.612;13.300;2023-03-03T10:54:19;29.67;;;12.80;;
18796;SDS011;9526;52.612;13.300;2023-03-03T10:57:06;28.30;;;12.23;;
18796;SDS011;9526;52.612;13.300;2023-03-03T10:59:45;30.87;;;13.07;;
18796;SDS011;9526;52.612;13.300;2023-03-03T11:02:38;29.77;;;12.73;;
18796;SDS011;9526;52.612;13.300;2023-03-03T11:05:18;32.70;;;13.70;;
18796;SDS011;9526;52.612;13.300;2023-03-03T11:07:53;29.37;;;12.80;;
18796;SDS011;9526;52.612;13.300;2023-03-03T11:10:26;33.23;;;14.07;;
18796;SDS011;9526;52.612;13.300;2023-03-03T11:13:06;29.20;;;14.20;;
18796;SDS011;9526;52.612;13.300;2023-03-03T11:15:41;28.63;;;13.00;;
18796;SDS011;9526;52.612;13.300;2023-03-03T11:18:15;29.33;;;12.60;;
18796;SDS011;9526;52.612;13.300;2023-03-03T11:20:50;29.43;;;13.27;;
18796;SDS011;9526;52.612;13.300;2023-03-03T11:23:35;27.27;;;13.27;;
18796;SDS011;9526;52.612;13.300;2023-03-03T11:26:12;30.63;;;13.83;;
18796;SDS011;9526;52.612;13.300;2023-03-03T11:28:51;28.43;;;12.53;;
18796;SDS011;9526;52.612;13.300;2023-03-03T11:31:29;30.23;;;14.00;;
18796;SDS011;9526;52.612;13.300;2023-03-03T11:34:00;32.60;;;14.93;;
18796;SDS011;9526;52.612;13.300;2023-03-03T11:36:37;28.40;;;13.33;;
18796;SDS011;9526;52.612;13.300;2023-03-03T11:39:06;33.20;;;14.50;;
18796;SDS011;9526;52.612;13.300;2023-03-03T11:41:35;31.57;;;14.23;;
18796;SDS011;9526;52.612;13.300;2023-03-03T11:44:05;35.00;;;14.23;;
18796;SDS011;9526;52.612;13.300;2023-03-03T11:46:41;29.03;;;14.03;;
18796;SDS011;9526;52.612;13.300;2023-03-03T11:49:11;31.07;;;13.33;;
18796;SDS011;9526;52.612;13.300;2023-03-03T11:51:45;30.53;;;12.80;;
18796;SDS011;9526;52.612;13.300;2023-03-03T11:54:23;28.83;;;13.40;;
18796;SDS011;9526;52.612;13.300;2023-03-03T11:56:56;27.83;;;13.13;;
18796;SDS011;9526;52.612;13.300;2023-03-03T11:59:41;32.50;;;13.97;;
18796;SDS011;9526;52.612;13.300;2023-03-03T12:02:38;35.00;;;14.63;;
18796;SDS011;9526;52.612;13.300;2023-03-03T12:05:37;29.47;;;13.83;;
18796;SDS011;9526;52.612;13.300;2023-03-03T12:08:13;30.63;;;14.37;;
18796;SDS011;9526;52.612;13.300;2023-03-03T12:10:50;34.53;;;15.67;;
18796;SDS011;9526;52.612;13.300;2023-03-03T12:13:25;33.60;;;14.23;;
18796;SDS011;9526;52.612;13.300;2023-03-03T12:16:01;31.57;;;14.23;;
18796;SDS011;9526;52.612;13.300;2023-03-03T12:18:42;34.10;;;15.40;;
18796;SDS011;9526;52.612;13.300;2023-03-03T12:21:26;34.90;;;15.63;;
18796;SDS011;9526;52.612;13.300;2023-03-03T12:24:29;39.80;;;15.47;;
18796;SDS011;9526;52.612;13.300;2023-03-03T12:27:09;34.53;;;15.07;;
18796;SDS011;9526;52.612;13.300;2023-03-03T12:29:41;31.73;;;14.90;;
18796;SDS011;9526;52.612;13.300;2023-03-03T12:32:17;34.77;;;15.47;;
18796;SDS011;9526;52.612;13.300;2023-03-03T12:34:52;34.97;;;15.63;;
18796;SDS011;9526;52.612;13.300;2023-03-03T12:37:22;31.87;;;15.40;;
18796;SDS011;9526;52.612;13.300;2023-03-03T12:40:09;30.77;;;14.50;;
18796;SDS011;9526;52.612;13.300;2023-03-03T12:42:45;34.43;;;15.17;;
18796;SDS011;9526;52.612;13.300;2023-03-03T12:45:27;33.90;;;16.10;;
18796;SDS011;9526;52.612;13.300;2023-03-03T12:48:05;32.03;;;15.97;;
18796;SDS011;9526;52.612;13.300;2023-03-03T12:50:35;34.93;;;15.47;;
18796;SDS011;9526;52.612;13.300;2023-03-03T12:53:11;29.93;;;12.93;;
18796;SDS011;9526;52.612;13.300;2023-03-03T12:56:11;37.87;;;15.97;;
18796;SDS011;9526;52.612;13.300;2023-03-03T12:58:40;41.93;;;19.93;;
18796;SDS011;9526;52.612;13.300;2023-03-03T13:01:14;33.17;;;15.00;;
18796;SDS011;9526;52.612;13.300;2023-03-03T13:03:56;31.13;;;15.67;;
18796;SDS011;9526;52.612;13.300;2023-03-03T13:06:28;32.97;;;15.40;;
18796;SDS011;9526;52.612;13.300;2023-03-03T13:09:04;36.57;;;17.07;;
18796;SDS011;9526;52.612;13.300;2023-03-03T13:15:00;41.07;;;21.27;;
18796;SDS011;9526;52.612;13.300;2023-03-03T13:17:37;30.70;;;15.60;;
18796;SDS011;9526;52.612;13.300;2023-03-03T13:20:12;36.33;;;14.27;;
18796;SDS011;9526;52.612;13.300;2023-03-03T13:22:49;31.10;;;14.20;;
18796;SDS011;9526;52.612;13.300;2023-03-03T13:25:27;28.77;;;14.43;;
18796;SDS011;9526;52.612;13.300;2023-03-03T13:28:01;29.27;;;13.90;;
18796;SDS011;9526;52.612;13.300;2023-03-03T13:30:34;25.03;;;12.37;;
18796;SDS011;9526;52.612;13.300;2023-03-03T13:33:19;28.10;;;13.57;;
18796;SDS011;9526;52.612;13.300;2023-03-03T13:35:50;25.60;;;12.80;;
18796;SDS011;9526;52.612;13.300;2023-03-03T13:38:20;25.20;;;13.17;;
18796;SDS011;9526;52.612;13.300;2023-03-03T13:40:48;26.87;;;13.57;;
18796;SDS011;9526;52.612;13.300;2023-03-03T13:43:17;27.73;;;13.97;;
18796;SDS011;9526;52.612;13.300;2023-03-03T13:45:50;30.37;;;14.17;;
18796;SDS011;9526;52.612;13.300;2023-03-03T13:48:27;28.13;;;14.57;;
18796;SDS011;9526;52.612;13.300;2023-03-03T13:51:11;44.73;;;20.57;;
18796;SDS011;9526;52.612;13.300;2023-03-03T13:53:46;71.97;;;37.27;;
18796;SDS011;9526;52.612;13.300;2023-03-03T13:56:27;34.57;;;17.00;;
18796;SDS011;9526;52.612;13.300;2023-03-03T13:59:09;26.47;;;12.47;;
18796;SDS011;9526;52.612;13.300;2023-03-03T14:01:46;26.63;;;12.30;;
18796;SDS011;9526;52.612;13.300;2023-03-03T14:04:22;29.10;;;14.33;;
18796;SDS011;9526;52.612;13.300;2023-03-03T14:07:04;29.83;;;14.43;;
18796;SDS011;9526;52.612;13.300;2023-03-03T14:09:39;28.40;;;15.17;;
18796;SDS011;9526;52.612;13.300;2023-03-03T14:12:23;27.60;;;14.07;;
18796;SDS011;9526;52.612;13.300;2023-03-03T14:14:53;27.37;;;14.17;;
18796;SDS011;9526;52.612;13.300;2023-03-03T14:17:28;32.27;;;15.03;;
18796;SDS011;9526;52.612;13.300;2023-03-03T14:20:01;34.70;;;17.80;;
18796;SDS011;9526;52.612;13.300;2023-03-03T14:22:44;30.77;;;15.57;;
18796;SDS011;9526;52.612;13.300;2023-03-03T14:25:15;38.80;;;18.43;;
18796;SDS011;9526;52.612;13.300;2023-03-03T14:27:40;33.17;;;17.17;;
18796;SDS011;9526;52.612;13.300;2023-03-03T14:30:24;32.37;;;16.30;;
18796;SDS011;9526;52.612;13.300;2023-03-03T14:32:57;30.67;;;15.30;;
18796;SDS011;9526;52.612;13.300;2023-03-03T14:35:30;33.57;;;16.90;;
18796;SDS011;9526;52.612;13.300;2023-03-03T14:38:00;35.80;;;17.98;;
18796;SDS011;9526;52.612;13.300;2023-03-03T14:40:30;29.93;;;15.43;;
18796;SDS011;9526;52.612;13.300;2023-03-03T14:42:55;29.43;;;15.40;;
18796;SDS011;9526;52.612;13.300;2023-03-03T14:45:28;31.37;;;15.70;;
18796;SDS011;9526;52.612;13.300;2023-03-03T14:47:56;33.03;;;16.37;;
18796;SDS011;9526;52.612;13.300;2023-03-03T14:50:31;35.67;;;16.93;;
18796;SDS011;9526;52.612;13.300;2023-03-03T14:53:07;34.20;;;16.90;;